Mid Delta Regional Airport
KGLH : now visible

Aeroporto :











RITROVATECI SU...

 
LOGIN :

Iscrizione | Disclaimer

   EN    FR    IT 

 









Sommario :    VFR   VFR Marginale   IFR   IFR Intensivo   IFR Molto Intensivo
Visibilità : 
Base nubi : 
>= 8 km
>= 3000ft
5 / 8 km
1000 / 3000 ft
1500m / 5 km
500 / 1000 ft
800 / 1500m
200 / 500 ft
< 800m
< 200 ft
Simboli :   Temporali  Nebbia  Neve Forte  Precipitazioni Forti  Vento > 20 kt






- Altitudine del aeroporto : 131 ft
- Codice IATA : GLH


KGLH - Mid Delta Regional

ULTIMO METAR :
  • 051253Z 03005KT 10SM CLR 21/19 A3004 RMK AO2 SLP179 T02110194

METARs OBSOLETI :
  • 051153Z 03005KT 6SM BR CLR 19/18 A3002 RMK AO2 SLP170 T01890178 10206 20183 53002
  • 051053Z AUTO 02004KT 7SM CLR 18/18 A3001 RMK AO2 SLP168 T01830178

TAF KGLH
Valido dal 05 a 12 ore il 06 a 12 ore UTC


051120Z 0512/0612 02005KT P6SM SCT060 SCT100
FIR KZME / America del Nord



MetMap, La meteo Aeronautica in un colpo d'occhio ! - Copyright ORBIFLY Dicembre 2007 - Disclaimer

ORBIFLY MET'MAP TEAM :

Programmazione e sviluppo : Alexandra Zaïnal
Concezione : Baudouin d'Aumeries
Aiuto per la programmazione : Marc-Olivier Méhu
Supporto tecnico e logistico : Manuel Goepfert
Aiuto per la traduzione : Arnaldo La Scala

Contatto : metmap@orbifly.com




FONTI E CREDITI :

   NOAA       Earth
Advisory